Time;durP1;ratioP1;P1;durP2;ratioP2;P2;SDS_P1;SDS_P2;PMS_P1;PMS_P2;Temp;Humidity;BMP_temperature;BMP_pressure;BME280_temperature;BME280_humidity;BME280_pressure;Samples;Min_cycle;Max_cycle;Signal;HPM_P1;HPM_P2
2023/03/27 00:00:19;;;;;;;4.43;4.23;;;;;;;5.10;100.00;95605.50;5017339;28;20215;-70
2023/03/27 00:02:47;;;;;;;3.63;3.43;;;;;;;5.04;100.00;95606.38;5032270;28;20277;-69
2023/03/27 00:05:13;;;;;;;11.77;10.97;;;;;;;5.00;100.00;95610.44;5016694;28;20392;-71
2023/03/27 00:07:40;;;;;;;4.03;3.93;;;;;;;5.10;100.00;95613.31;5016918;28;20261;-69
2023/03/27 00:10:08;;;;;;;4.00;3.80;;;;;;;4.96;100.00;95609.28;5031346;28;20202;-70
2023/03/27 00:12:34;;;;;;;6.33;6.03;;;;;;;4.82;100.00;95620.88;5020008;28;20818;-70
2023/03/27 00:14:59;;;;;;;4.40;4.20;;;;;;;4.79;100.00;95626.50;5031514;28;20186;-70
2023/03/27 00:17:25;;;;;;;4.50;4.20;;;;;;;4.68;100.00;95633.19;5017019;28;20179;-70
2023/03/27 00:19:50;;;;;;;3.87;3.67;;;;;;;4.69;100.00;95628.78;5016744;28;20191;-70
2023/03/27 00:22:15;;;;;;;4.33;4.13;;;;;;;4.70;100.00;95628.59;5017981;28;20187;-70
2023/03/27 00:24:41;;;;;;;5.20;4.63;;;;;;;4.73;100.00;95645.53;5031957;28;20202;-70
2023/03/27 00:27:07;;;;;;;5.23;4.97;;;;;;;4.72;100.00;95638.75;5035574;28;20187;-71
2023/03/27 00:29:33;;;;;;;4.60;4.30;;;;;;;4.72;100.00;95642.16;5035872;28;20262;-70
2023/03/27 00:31:58;;;;;;;5.27;5.07;;;;;;;4.66;100.00;95645.63;5026387;28;20194;-70
2023/03/27 00:34:24;;;;;;;4.50;4.20;;;;;;;4.72;100.00;95649.94;5029292;28;20205;-70
2023/03/27 00:36:50;;;;;;;20.33;18.87;;;;;;;4.66;100.00;95637.81;5002313;28;20254;-71
2023/03/27 00:39:18;;;;;;;5.10;4.80;;;;;;;4.70;100.00;95656.34;5016802;28;20229;-71
2023/03/27 00:41:43;;;;;;;5.33;5.03;;;;;;;4.62;100.00;95664.44;5023698;28;20209;-70
2023/03/27 00:44:22;;;;;;;5.70;5.30;;;;;;;4.59;100.00;95656.06;5025176;28;20663;-70
2023/03/27 00:46:48;;;;;;;5.87;5.57;;;;;;;4.59;100.00;95676.03;5016223;28;20604;-70
2023/03/27 00:49:15;;;;;;;22.53;21.10;;;;;;;4.50;100.00;95672.94;4998723;28;20262;-70
2023/03/27 00:51:43;;;;;;;5.33;5.03;;;;;;;4.54;100.00;95689.66;5022750;28;20237;-70
2023/03/27 00:54:10;;;;;;;6.57;6.17;;;;;;;4.47;100.00;95681.13;5035995;28;20186;-70
2023/03/27 00:56:37;;;;;;;7.03;6.63;;;;;;;4.43;100.00;95681.78;5035737;28;20248;-70
2023/03/27 00:59:09;;;;;;;8.20;7.73;;;;;;;4.37;100.00;95678.25;5017940;28;20274;-70
2023/03/27 01:01:35;;;;;;;10.33;9.73;;;;;;;4.37;100.00;95690.41;5029631;28;20226;-70
2023/03/27 01:04:04;;;;;;;5.97;5.67;;;;;;;4.23;100.00;95696.75;5055658;28;20224;-70
2023/03/27 01:06:30;;;;;;;17.60;16.47;;;;;;;4.23;100.00;95696.75;5050214;28;20189;-71
2023/03/27 01:08:56;;;;;;;4.20;4.00;;;;;;;4.19;100.00;95707.53;5036124;28;20182;-70
2023/03/27 01:11:30;;;;;;;6.70;6.40;;;;;;;4.13;100.00;95716.16;5035364;28;20187;-70
2023/03/27 01:14:16;;;;;;;13.77;12.90;;;;;;;4.12;100.00;95727.53;5035854;28;20182;-71
2023/03/27 01:16:54;;;;;;;6.30;5.97;;;;;;;4.08;100.00;95726.38;5040654;28;20170;-70
2023/03/27 01:19:47;;;;;;;4.43;4.23;;;;;;;4.10;100.00;95726.97;5037563;28;20267;-71
2023/03/27 01:22:31;;;;;;;4.50;4.30;;;;;;;4.11;100.00;95725.19;5053848;28;20178;-70
2023/03/27 01:25:16;;;;;;;5.13;4.83;;;;;;;4.06;100.00;95723.22;5035536;28;20203;-70
2023/03/27 01:28:26;;;;;;;7.43;6.93;;;;;;;3.97;100.00;95731.44;5047918;28;20232;-70
2023/03/27 01:31:03;;;;;;;5.83;5.53;;;;;;;3.91;100.00;95735.69;5021486;28;20541;-70
2023/03/27 01:34:06;;;;;;;8.30;7.87;;;;;;;3.84;100.00;95747.13;5046073;28;20213;-70
2023/03/27 01:36:45;;;;;;;4.67;4.40;;;;;;;3.91;100.00;95751.22;5036397;28;20244;-70
2023/03/27 01:39:28;;;;;;;4.30;4.10;;;;;;;3.85;100.00;95759.84;5055051;28;20181;-70
2023/03/27 01:42:07;;;;;;;4.87;4.57;;;;;;;3.90;100.00;95760.00;5055081;28;20181;-70
2023/03/27 01:44:48;;;;;;;11.40;10.60;;;;;;;3.81;100.00;95760.47;5054589;28;20277;-71
2023/03/27 01:47:47;;;;;;;5.00;4.70;;;;;;;3.78;100.00;95773.88;5046552;28;20232;-70
2023/03/27 01:50:19;;;;;;;6.10;5.70;;;;;;;3.76;100.00;95780.03;5035129;28;20179;-70
2023/03/27 01:52:51;;;;;;;7.77;7.30;;;;;;;3.74;100.00;95787.22;5023141;28;20186;-70
2023/03/27 01:55:22;;;;;;;4.33;4.13;;;;;;;3.82;100.00;95798.34;5054777;28;20170;-70
2023/03/27 01:57:59;;;;;;;36.63;33.50;;;;;;;3.65;100.00;95798.84;5043299;28;20201;-70
2023/03/27 02:00:26;;;;;;;5.53;5.13;;;;;;;3.60;100.00;95809.03;5050765;28;20661;-70
2023/03/27 02:03:22;;;;;;;18.80;17.63;;;;;;;3.61;100.00;95812.44;5050229;28;20245;-70
2023/03/27 02:05:55;;;;;;;43.90;40.37;;;;;;;3.59;100.00;95817.81;5021097;28;20281;-70
2023/03/27 02:08:36;;;;;;;8.13;7.67;;;;;;;3.50;100.00;95826.03;5048083;28;20243;-70
2023/03/27 02:11:03;;;;;;;66.90;50.43;;;;;;;3.30;100.00;95841.63;5036155;28;20204;-70
2023/03/27 02:13:37;;;;;;;8.70;8.10;;;;;;;3.28;100.00;95834.06;5054276;28;20272;-70
2023/03/27 02:16:06;;;;;;;12.37;11.50;;;;;;;3.32;100.00;95843.03;5045770;28;20246;-70
2023/03/27 02:18:37;;;;;;;9.90;9.10;;;;;;;3.24;100.00;95855.38;5049554;28;20202;-70
2023/03/27 02:21:03;;;;;;;6.67;6.27;;;;;;;3.09;100.00;95865.19;5035139;28;20186;-70
2023/03/27 02:23:31;;;;;;;7.27;6.57;;;;;;;3.11;100.00;95866.59;5034475;28;20214;-70
2023/03/27 02:25:58;;;;;;;9.17;8.37;;;;;;;3.09;100.00;95881.50;5034270;28;20191;-70
2023/03/27 02:28:28;;;;;;;16.37;15.07;;;;;;;3.01;100.00;95878.34;5047233;28;20194;-70
2023/03/27 02:31:01;;;;;;;13.80;8.63;;;;;;;2.95;100.00;95874.78;5035095;28;20627;-70
2023/03/27 02:33:42;;;;;;;9.63;8.43;;;;;;;2.86;100.00;95904.41;5034033;28;20210;-70
2023/03/27 02:36:15;;;;;;;13.13;8.97;;;;;;;2.83;100.00;95902.25;5044896;28;20640;-70
2023/03/27 02:38:50;;;;;;;13.83;9.73;;;;;;;2.67;100.00;95906.03;5037407;28;20262;-70
2023/03/27 02:41:47;;;;;;;23.23;11.40;;;;;;;2.74;100.00;95918.94;5033928;28;20525;-70
2023/03/27 02:44:30;;;;;;;18.27;14.50;;;;;;;2.61;100.00;95918.97;5031356;28;20201;-70
2023/03/27 02:47:00;;;;;;;18.83;10.40;;;;;;;2.65;100.00;95925.31;5051660;28;20713;-70
2023/03/27 02:49:32;;;;;;;18.53;12.07;;;;;;;2.48;100.00;95924.91;5033694;28;20183;-70
2023/03/27 02:52:06;;;;;;;32.50;28.03;;;;;;;2.37;100.00;95933.25;5033903;28;20183;-70
2023/03/27 02:54:38;;;;;;;19.87;13.00;;;;;;;2.23;100.00;95936.81;5033688;28;20182;-70
2023/03/27 02:57:09;;;;;;;51.03;41.67;;;;;;;2.18;100.00;95945.13;5033876;28;20232;-70
2023/03/27 02:59:41;;;;;;;32.30;28.93;;;;;;;2.19;100.00;95946.72;5045141;28;20210;-69
2023/03/27 03:02:13;;;;;;;22.20;12.87;;;;;;;2.16;100.00;95960.03;5036877;28;20311;-70
2023/03/27 03:04:47;;;;;;;28.93;12.67;;;;;;;2.15;100.00;95980.91;5028540;28;20202;-70
2023/03/27 03:07:13;;;;;;;37.00;28.83;;;;;;;2.09;100.00;95974.72;5033030;28;20221;-70
2023/03/27 03:09:39;;;;;;;24.90;17.10;;;;;;;2.12;100.00;95979.50;5032922;28;20182;-70
2023/03/27 03:12:05;;;;;;;26.10;14.97;;;;;;;2.07;100.00;95990.41;5029603;28;20199;-69
2023/03/27 03:14:34;;;;;;;19.37;13.47;;;;;;;2.20;100.00;95988.88;5014973;28;20179;-70
2023/03/27 03:16:59;;;;;;;23.90;12.90;;;;;;;2.12;100.00;95978.72;5029463;28;20248;-70
2023/03/27 03:19:25;;;;;;;24.93;13.77;;;;;;;1.96;100.00;96001.31;5013718;28;20258;-69
2023/03/27 03:21:50;;;;;;;25.40;12.47;;;;;;;1.96;100.00;96003.09;5013754;28;20194;-70
2023/03/27 03:24:20;;;;;;;19.23;12.60;;;;;;;1.95;100.00;96024.78;5024633;28;20298;-69
2023/03/27 03:26:48;;;;;;;22.67;15.93;;;;;;;1.90;100.00;96015.00;5032809;28;20677;-69
2023/03/27 03:29:14;;;;;;;47.43;42.47;;;;;;;1.79;100.00;96027.63;4999053;28;20182;-70
2023/03/27 03:31:43;;;;;;;24.13;17.43;;;;;;;1.77;100.00;96024.47;5032435;28;20249;-70
2023/03/27 03:34:10;;;;;;;21.67;12.90;;;;;;;1.75;100.00;96036.75;5019232;28;20199;-70
2023/03/27 03:36:36;;;;;;;24.90;17.40;;;;;;;1.80;100.00;96040.38;5013096;28;20271;-70
2023/03/27 03:39:02;;;;;;;21.57;12.87;;;;;;;1.75;100.00;96041.94;5013242;28;20755;-71
2023/03/27 03:41:28;;;;;;;24.80;12.70;;;;;;;1.82;100.00;96055.69;5013253;28;20278;-71
2023/03/27 03:43:53;;;;;;;24.47;12.33;;;;;;;1.87;100.00;96046.38;5026469;28;20271;-70
2023/03/27 03:46:19;;;;;;;20.07;14.90;;;;;;;1.95;100.00;96066.88;5031258;28;20679;-70
2023/03/27 03:48:44;;;;;;;27.27;12.77;;;;;;;1.98;100.00;96068.31;5020130;28;20265;-70
2023/03/27 03:51:10;;;;;;;25.23;12.67;;;;;;;1.94;100.00;96077.44;5013191;28;20276;-70
2023/03/27 03:53:35;;;;;;;26.33;15.93;;;;;;;1.88;100.00;96081.56;5023294;28;20703;-70
2023/03/27 03:56:00;;;;;;;31.97;13.13;;;;;;;1.81;100.00;96096.22;5019051;28;20200;-70
2023/03/27 03:58:26;;;;;;;28.80;15.47;;;;;;;1.85;100.00;96112.13;5012412;28;20190;-70
2023/03/27 04:00:53;;;;;;;28.27;15.07;;;;;;;1.78;100.00;96119.88;5014608;28;20182;-69
2023/03/27 04:03:19;;;;;;;19.37;11.00;;;;;;;1.74;100.00;96113.44;5040587;28;20174;-70
2023/03/27 04:05:45;;;;;;;24.13;12.07;;;;;;;1.76;100.00;96127.00;5052145;28;20274;-70
2023/03/27 04:08:10;;;;;;;30.53;20.37;;;;;;;1.69;100.00;96136.47;5051904;28;20185;-70
2023/03/27 04:10:38;;;;;;;21.97;10.97;;;;;;;1.75;100.00;96143.47;5051711;28;20186;-71
2023/03/27 04:13:05;;;;;;;16.40;10.27;;;;;;;1.63;100.00;96157.88;5038560;28;20194;-70
2023/03/27 04:15:30;;;;;;;22.80;11.77;;;;;;;1.59;100.00;96166.97;5033580;28;20285;-70
2023/03/27 04:17:59;;;;;;;28.73;11.33;;;;;;;1.51;100.00;96170.47;5052261;28;20189;-70
2023/03/27 04:20:27;;;;;;;17.97;9.23;;;;;;;1.59;100.00;96183.28;5051261;28;20224;-71
2023/03/27 04:22:53;;;;;;;15.97;9.50;;;;;;;1.52;100.00;96186.78;5025886;28;20189;-70
2023/03/27 04:25:21;;;;;;;19.30;10.10;;;;;;;1.44;100.00;96186.91;5051488;28;20251;-70
2023/03/27 04:27:51;;;;;;;17.67;9.93;;;;;;;1.40;100.00;96199.38;5050981;28;20646;-70
2023/03/27 04:30:21;;;;;;;20.87;9.83;;;;;;;1.28;100.00;96206.03;5051918;28;20266;-70
2023/03/27 04:32:48;;;;;;;26.80;10.97;;;;;;;1.24;100.00;96204.75;5048582;28;20270;-71
2023/03/27 04:35:14;;;;;;;20.30;8.87;;;;;;;1.11;100.00;96210.59;5029174;28;20224;-70
2023/03/27 04:37:42;;;;;;;17.83;9.73;;;;;;;1.16;100.00;96231.50;5049008;28;20241;-71
2023/03/27 04:40:10;;;;;;;15.90;8.73;;;;;;;1.15;100.00;96234.25;5051588;28;20178;-71
2023/03/27 04:42:42;;;;;;;22.47;9.27;;;;;;;1.17;100.00;96230.50;5050133;28;20281;-70
2023/03/27 04:45:16;;;;;;;23.60;15.87;;;;;;;1.10;100.00;96231.44;5033171;28;20202;-70
2023/03/27 04:47:41;;;;;;;14.23;8.43;;;;;;;1.08;100.00;96241.91;5052523;28;20685;-70
2023/03/27 04:50:09;;;;;;;14.47;9.50;;;;;;;1.05;100.00;96249.22;5055025;28;20243;-71
2023/03/27 04:52:35;;;;;;;20.20;7.93;;;;;;;1.05;100.00;96255.19;5048466;28;20269;-70
2023/03/27 04:55:01;;;;;;;20.80;9.30;;;;;;;0.95;100.00;96261.63;5055147;28;20209;-71
2023/03/27 04:57:30;;;;;;;13.33;9.67;;;;;;;0.84;100.00;96270.56;5041252;28;20182;-70
2023/03/27 05:00:00;;;;;;;11.40;6.83;;;;;;;0.89;100.00;96267.50;5054255;28;20189;-70
2023/03/27 05:02:25;;;;;;;13.07;7.17;;;;;;;0.77;100.00;96286.00;5039322;28;20230;-70
2023/03/27 05:04:57;;;;;;;23.80;7.70;;;;;;;0.68;100.00;96279.28;5037309;28;20255;-70
2023/03/27 05:07:25;;;;;;;19.03;7.30;;;;;;;0.64;100.00;96290.16;5033249;28;20281;-70
2023/03/27 05:09:51;;;;;;;15.87;7.33;;;;;;;0.54;100.00;96305.06;5053829;28;20250;-70
2023/03/27 05:12:17;;;;;;;9.50;6.80;;;;;;;0.51;100.00;96306.22;5054139;28;20201;-71
2023/03/27 05:14:42;;;;;;;13.20;6.47;;;;;;;0.54;100.00;96312.81;5055035;28;20638;-70
2023/03/27 05:17:08;;;;;;;7.87;6.50;;;;;;;0.51;100.00;96320.88;5052763;28;20178;-70
2023/03/27 05:19:34;;;;;;;14.60;7.07;;;;;;;0.55;100.00;96330.69;5035482;28;20187;-70
2023/03/27 05:21:59;;;;;;;11.97;7.50;;;;;;;0.45;100.00;96342.22;5035327;28;20201;-70
2023/03/27 05:24:25;;;;;;;7.93;5.60;;;;;;;0.43;100.00;96350.13;5042509;28;20293;-69
2023/03/27 05:26:51;;;;;;;15.90;13.10;;;;;;;0.31;100.00;96357.47;5034924;28;20585;-69
2023/03/27 05:29:16;;;;;;;19.03;6.13;;;;;;;0.34;100.00;96364.84;5034819;28;20186;-69
2023/03/27 05:31:41;;;;;;;19.83;11.20;;;;;;;0.31;100.00;96385.81;5035278;28;20240;-69
2023/03/27 05:34:07;;;;;;;12.63;5.80;;;;;;;0.32;100.00;96382.28;5034076;28;20205;-69
2023/03/27 05:36:34;;;;;;;11.57;5.60;;;;;;;0.32;100.00;96373.72;5054555;28;20192;-69
2023/03/27 05:39:00;;;;;;;13.03;10.20;;;;;;;0.23;100.00;96369.59;5054733;28;20190;-69
2023/03/27 05:41:26;;;;;;;7.73;6.07;;;;;;;0.18;100.00;96377.84;5053486;28;20244;-70
2023/03/27 05:43:52;;;;;;;10.63;9.57;;;;;;;0.15;100.00;96382.56;5054016;28;20221;-69
2023/03/27 05:46:18;;;;;;;8.67;4.43;;;;;;;0.24;100.00;96389.25;5017756;28;20186;-69
2023/03/27 05:48:43;;;;;;;7.43;6.00;;;;;;;0.15;100.00;96385.94;5040173;28;20185;-69
2023/03/27 05:51:09;;;;;;;11.37;6.57;;;;;;;0.16;100.00;96402.19;5053509;28;20235;-69
2023/03/27 05:53:38;;;;;;;6.77;5.33;;;;;;;0.26;100.00;96421.59;5053079;28;20186;-69
2023/03/27 05:56:04;;;;;;;12.03;10.83;;;;;;;0.14;100.00;96411.88;5050654;28;20670;-69
2023/03/27 05:58:30;;;;;;;13.03;6.03;;;;;;;0.14;100.00;96417.00;5035984;28;20642;-69
2023/03/27 06:00:55;;;;;;;11.80;6.70;;;;;;;0.18;100.00;96429.38;5034149;28;20270;-69
2023/03/27 06:03:22;;;;;;;10.20;6.50;;;;;;;0.25;100.00;96422.56;5037232;28;20634;-69
2023/03/27 06:05:48;;;;;;;10.60;8.07;;;;;;;0.40;100.00;96438.09;5053751;28;20181;-70
2023/03/27 06:08:14;;;;;;;9.50;5.40;;;;;;;0.30;100.00;96446.06;5051928;28;20182;-69
2023/03/27 06:10:42;;;;;;;14.63;6.93;;;;;;;0.37;100.00;96448.75;5035289;28;20636;-70
2023/03/27 06:13:11;;;;;;;9.30;5.57;;;;;;;0.30;100.00;96446.06;5035153;28;20648;-69
2023/03/27 06:15:40;;;;;;;12.10;7.17;;;;;;;0.25;100.00;96456.09;5047665;28;20741;-69
2023/03/27 06:18:06;;;;;;;10.70;6.47;;;;;;;0.37;100.00;96459.06;5034354;28;20617;-69
2023/03/27 06:20:31;;;;;;;9.23;5.90;;;;;;;0.31;100.00;96468.28;5050807;28;20186;-68
2023/03/27 06:22:58;;;;;;;21.37;17.50;;;;;;;0.45;100.00;96482.19;5053339;28;20182;-70
2023/03/27 06:25:26;;;;;;;11.53;5.60;;;;;;;0.86;100.00;96498.19;5034161;28;20195;-69
2023/03/27 06:27:52;;;;;;;20.30;18.40;;;;;;;0.74;100.00;96494.41;5034224;28;20206;-70
2023/03/27 06:30:20;;;;;;;12.33;10.23;;;;;;;0.68;100.00;96506.22;5048412;28;20240;-70
2023/03/27 06:32:48;;;;;;;16.70;13.00;;;;;;;0.53;100.00;96512.28;5045613;28;20269;-70
2023/03/27 06:35:14;;;;;;;8.30;6.50;;;;;;;0.60;100.00;96514.03;5053057;28;20590;-70
2023/03/27 06:37:45;;;;;;;13.90;9.67;;;;;;;0.55;100.00;96523.25;5039905;28;20175;-70
2023/03/27 06:40:23;;;;;;;6.20;5.60;;;;;;;0.48;100.00;96536.00;5033990;28;20182;-70
2023/03/27 06:42:49;;;;;;;14.43;7.83;;;;;;;0.56;100.00;96535.94;5051642;28;20170;-70
2023/03/27 06:45:15;;;;;;;13.17;7.37;;;;;;;0.67;100.00;96538.13;5031707;28;20214;-70
2023/03/27 06:47:49;;;;;;;8.20;6.30;;;;;;;0.78;100.00;96553.22;5053088;28;20186;-70
2023/03/27 06:50:15;;;;;;;6.30;5.67;;;;;;;0.79;100.00;96556.59;5050234;28;20185;-69
2023/03/27 06:52:40;;;;;;;20.73;18.63;;;;;;;0.58;100.00;96562.38;5042084;28;20545;-69
2023/03/27 06:55:07;;;;;;;10.07;6.47;;;;;;;0.54;100.00;96568.84;5049663;28;20634;-68
2023/03/27 06:57:32;;;;;;;8.90;6.10;;;;;;;0.69;100.00;96562.00;5044028;28;20180;-69
2023/03/27 06:59:58;;;;;;;6.80;5.23;;;;;;;0.75;100.00;96575.97;5017886;28;20245;-69
2023/03/27 07:02:23;;;;;;;11.83;6.97;;;;;;;0.75;100.00;96573.41;5030687;28;20221;-69
2023/03/27 07:04:48;;;;;;;11.20;5.40;;;;;;;0.59;100.00;96579.47;5032908;28;20678;-69
2023/03/27 07:07:14;;;;;;;11.17;4.53;;;;;;;0.60;100.00;96585.41;5033185;28;20197;-69
2023/03/27 07:09:40;;;;;;;8.63;5.43;;;;;;;0.87;100.00;96589.28;5015644;28;20214;-69
2023/03/27 07:12:07;;;;;;;16.87;15.23;;;;;;;0.83;100.00;96581.09;5033491;28;20265;-69
2023/03/27 07:14:33;;;;;;;10.63;7.57;;;;;;;0.70;100.00;96589.38;5032932;28;20187;-69
2023/03/27 07:16:58;;;;;;;9.80;4.90;;;;;;;0.87;100.00;96597.03;5032999;28;20623;-69
2023/03/27 07:19:23;;;;;;;9.37;6.90;;;;;;;1.04;100.00;96598.53;5033106;28;20662;-70
2023/03/27 07:21:49;;;;;;;14.67;6.83;;;;;;;1.07;100.00;96622.22;5032977;28;20631;-69
2023/03/27 07:24:14;;;;;;;8.60;4.93;;;;;;;1.15;100.00;96619.59;5032710;28;20202;-70
2023/03/27 07:26:40;;;;;;;11.53;5.70;;;;;;;1.16;100.00;96622.97;5032364;28;20201;-70
2023/03/27 07:29:09;;;;;;;9.23;5.93;;;;;;;1.28;100.00;96631.13;5016085;28;20203;-69
2023/03/27 07:31:35;;;;;;;11.07;9.00;;;;;;;1.09;100.00;96640.91;5048571;28;20208;-70
2023/03/27 07:34:00;;;;;;;6.60;5.03;;;;;;;1.54;100.00;96647.06;5039526;28;20193;-69
2023/03/27 07:36:26;;;;;;;7.93;5.20;;;;;;;1.47;100.00;96640.97;5049099;28;20174;-70
2023/03/27 07:38:51;;;;;;;8.87;5.20;;;;;;;1.54;100.00;96642.69;5035202;28;20307;-69
2023/03/27 07:41:16;;;;;;;18.53;16.30;;;;;;;1.64;100.00;96653.59;5034080;28;20189;-70
2023/03/27 07:43:42;;;;;;;10.00;4.80;;;;;;;1.71;100.00;96655.47;5046079;28;20203;-71
2023/03/27 07:46:07;;;;;;;6.87;4.83;;;;;;;1.64;100.00;96657.94;5032657;28;20182;-70
2023/03/27 07:48:34;;;;;;;21.23;15.57;;;;;;;1.44;100.00;96673.13;5040836;28;20186;-70
2023/03/27 07:51:00;;;;;;;9.53;5.10;;;;;;;1.35;100.00;96681.88;5043030;28;20265;-69
2023/03/27 07:53:26;;;;;;;7.33;5.63;;;;;;;1.45;100.00;96673.94;5038297;28;20265;-70
2023/03/27 07:55:53;;;;;;;10.53;6.13;;;;;;;1.62;100.00;96689.09;5014400;28;20579;-70
2023/03/27 07:58:20;;;;;;;12.83;11.60;;;;;;;1.58;100.00;96687.84;5040769;28;20639;-70
2023/03/27 08:00:50;;;;;;;7.23;5.77;;;;;;;1.87;100.00;96702.66;5050370;28;20279;-70
2023/03/27 08:03:17;;;;;;;7.63;5.60;;;;;;;2.02;100.00;96705.25;5028262;28;20183;-70
2023/03/27 08:05:42;;;;;;;5.53;5.13;;;;;;;1.95;95.64;96720.66;5012719;28;20215;-70
2023/03/27 08:08:08;;;;;;;6.03;4.73;;;;;;;1.83;96.48;96716.91;5026411;28;20608;-69
2023/03/27 08:10:34;;;;;;;13.63;12.43;;;;;;;1.97;96.23;96718.72;5032417;28;20194;-70
2023/03/27 08:12:59;;;;;;;6.17;5.30;;;;;;;1.61;97.02;96718.53;5012639;28;20235;-70
2023/03/27 08:15:25;;;;;;;4.70;4.30;;;;;;;1.98;97.87;96728.06;5031324;28;20291;-70
2023/03/27 08:17:53;;;;;;;7.57;4.93;;;;;;;1.94;96.30;96736.34;5013093;28;20202;-70
2023/03/27 08:20:19;;;;;;;6.03;5.03;;;;;;;1.74;95.71;96736.00;5015791;28;20225;-70
2023/03/27 08:22:45;;;;;;;9.43;4.37;;;;;;;1.92;94.61;96743.47;5024143;28;20210;-70
2023/03/27 08:25:11;;;;;;;10.17;4.03;;;;;;;1.99;95.91;96742.63;5035451;28;20579;-70
2023/03/27 08:27:37;;;;;;;9.33;4.00;;;;;;;2.20;96.10;96747.13;5018460;28;20193;-70
2023/03/27 08:30:03;;;;;;;6.50;3.90;;;;;;;2.09;96.38;96753.50;5026144;28;20195;-70
2023/03/27 08:32:29;;;;;;;9.00;4.30;;;;;;;2.08;96.05;96761.44;4996728;28;20659;-69
2023/03/27 08:34:54;;;;;;;5.73;3.90;;;;;;;1.97;94.10;96762.66;5030477;28;20285;-70
2023/03/27 08:37:20;;;;;;;10.13;5.80;;;;;;;1.74;92.95;96779.94;5031494;28;20193;-70
2023/03/27 08:39:45;;;;;;;8.97;5.00;;;;;;;1.78;96.55;96765.72;5035004;28;20266;-70
2023/03/27 08:42:18;;;;;;;7.30;4.27;;;;;;;1.78;92.20;96770.88;5035327;28;20186;-70
2023/03/27 08:44:44;;;;;;;6.23;4.17;;;;;;;2.40;91.72;96768.09;5019078;28;20211;-70
2023/03/27 08:47:25;;;;;;;5.57;3.80;;;;;;;2.54;91.05;96767.31;5018864;28;20183;-70
2023/03/27 08:49:55;;;;;;;8.77;3.90;;;;;;;2.71;85.48;96767.97;5022311;28;20533;-70
2023/03/27 08:52:24;;;;;;;4.47;4.17;;;;;;;2.75;85.73;96777.78;4999108;28;20183;-69
2023/03/27 08:54:58;;;;;;;11.73;4.57;;;;;;;3.19;85.58;96774.38;5035486;28;20282;-69
2023/03/27 08:57:27;;;;;;;5.70;4.47;;;;;;;3.46;85.72;96789.25;5033170;28;20254;-69
2023/03/27 08:59:57;;;;;;;6.43;3.87;;;;;;;3.29;84.49;96780.88;5023541;28;20294;-70
2023/03/27 09:02:47;;;;;;;8.17;4.73;;;;;;;3.15;83.33;96786.88;5030553;28;20226;-70
2023/03/27 09:05:25;;;;;;;10.23;5.33;;;;;;;3.03;82.07;96792.69;5051858;28;20198;-70
2023/03/27 09:08:00;;;;;;;5.37;4.57;;;;;;;2.65;80.27;96792.78;5051614;28;20536;-70
2023/03/27 09:10:39;;;;;;;6.43;5.47;;;;;;;2.73;80.09;96797.84;5054040;28;20197;-71
2023/03/27 09:13:21;;;;;;;4.70;3.97;;;;;;;2.91;80.81;96803.50;5055292;28;20213;-70
2023/03/27 09:16:03;;;;;;;10.93;4.47;;;;;;;3.38;80.61;96809.28;5054930;28;20174;-70
2023/03/27 09:18:41;;;;;;;6.50;4.33;;;;;;;3.23;78.88;96817.84;5037096;28;20190;-70
2023/03/27 09:21:16;;;;;;;10.00;5.93;;;;;;;3.43;77.50;96819.91;5035325;28;20257;-70
2023/03/27 09:23:45;;;;;;;7.43;5.77;;;;;;;3.48;76.64;96817.56;5026123;28;20304;-70
2023/03/27 09:26:24;;;;;;;4.23;3.97;;;;;;;3.21;79.71;96826.81;5050428;28;20182;-70
2023/03/27 09:29:02;;;;;;;10.53;8.90;;;;;;;2.83;76.85;96829.47;5024768;28;20231;-70
2023/03/27 09:31:28;;;;;;;5.93;4.67;;;;;;;2.95;77.42;96822.06;5039771;28;20174;-70
2023/03/27 09:33:56;;;;;;;4.93;4.50;;;;;;;3.04;76.72;96828.75;5041247;28;20202;-70
2023/03/27 09:36:23;;;;;;;5.30;4.20;;;;;;;3.19;76.50;96831.34;5053566;28;20269;-70
2023/03/27 09:38:52;;;;;;;8.60;7.53;;;;;;;3.04;74.50;96846.88;5035382;28;20183;-70
2023/03/27 09:41:22;;;;;;;10.17;9.20;;;;;;;2.98;72.73;96834.66;5052299;28;20189;-70
2023/03/27 09:44:09;;;;;;;7.87;3.90;;;;;;;3.30;75.50;96838.66;5054284;28;20205;-70
2023/03/27 09:46:38;;;;;;;4.80;4.17;;;;;;;3.21;75.87;96844.94;5051719;28;20182;-70
2023/03/27 09:49:19;;;;;;;9.03;5.67;;;;;;;3.41;74.22;96845.97;5048135;28;20217;-70
2023/03/27 09:51:52;;;;;;;7.83;5.20;;;;;;;3.87;73.53;96843.94;5033951;28;20193;-70
2023/03/27 09:54:20;;;;;;;6.03;5.43;;;;;;;3.59;73.23;96859.38;5034396;28;20190;-70
2023/03/27 09:57:09;;;;;;;7.67;4.17;;;;;;;3.55;74.51;96852.94;5034136;28;20264;-71
2023/03/27 09:59:39;;;;;;;9.83;5.50;;;;;;;3.94;73.29;96862.16;5043697;28;20182;-71
2023/03/27 10:02:19;;;;;;;8.13;4.90;;;;;;;3.79;69.75;96871.78;5034419;28;20215;-70
2023/03/27 10:05:02;;;;;;;4.30;3.87;;;;;;;3.96;68.87;96873.94;5018908;28;20611;-71
2023/03/27 10:07:28;;;;;;;8.50;4.67;;;;;;;3.93;68.61;96873.53;5016088;28;20207;-71
2023/03/27 10:10:16;;;;;;;6.03;4.50;;;;;;;4.04;69.56;96875.63;5029998;28;20549;-70
2023/03/27 10:12:43;;;;;;;4.50;4.10;;;;;;;3.99;63.36;96883.97;5030095;28;20183;-71
2023/03/27 10:15:35;;;;;;;4.60;3.80;;;;;;;3.80;65.52;96883.72;5017603;28;20647;-70
2023/03/27 10:18:05;;;;;;;6.60;3.60;;;;;;;3.51;66.42;96890.53;5014413;28;20183;-70
2023/03/27 10:20:31;;;;;;;8.93;3.93;;;;;;;3.69;65.49;96887.59;5014165;28;20183;-71
2023/03/27 10:23:05;;;;;;;6.70;3.80;;;;;;;3.88;63.01;96889.63;5015465;28;20522;-71
2023/03/27 10:25:33;;;;;;;5.67;4.67;;;;;;;4.00;62.30;96901.13;5014049;28;20198;-71
2023/03/27 10:28:16;;;;;;;8.67;5.27;;;;;;;3.83;62.31;96883.38;5014262;28;20187;-71
2023/03/27 10:30:42;;;;;;;4.83;3.53;;;;;;;4.17;63.77;96886.97;4982232;28;20703;-71
2023/03/27 10:33:08;;;;;;;7.53;4.20;;;;;;;4.14;63.97;96889.09;5021670;28;20202;-70
2023/03/27 10:35:42;;;;;;;7.73;4.67;;;;;;;4.32;61.66;96905.06;5031742;28;20257;-71
2023/03/27 10:38:13;;;;;;;5.77;3.47;;;;;;;4.14;58.66;96907.25;4999740;28;20687;-71
2023/03/27 10:40:40;;;;;;;4.93;3.73;;;;;;;3.94;53.98;96895.88;5018811;28;20186;-71
2023/03/27 10:43:11;;;;;;;5.80;3.90;;;;;;;4.34;57.15;96887.53;5024012;28;20179;-71
2023/03/27 10:45:50;;;;;;;3.97;3.63;;;;;;;4.54;58.23;96890.31;4999040;28;20222;-71
2023/03/27 10:48:31;;;;;;;4.37;3.97;;;;;;;4.95;56.70;96896.47;5027986;28;20292;-71
2023/03/27 10:51:02;;;;;;;6.93;4.33;;;;;;;5.44;57.32;96888.59;5027936;28;20258;-71
2023/03/27 10:53:39;;;;;;;6.70;4.10;;;;;;;5.47;57.11;96905.56;5021908;28;20171;-71
2023/03/27 10:56:22;;;;;;;5.53;4.00;;;;;;;5.01;59.68;96898.28;5018078;28;20210;-71
2023/03/27 10:59:04;;;;;;;8.87;4.80;;;;;;;5.02;61.44;96904.28;5031384;28;20210;-70
2023/03/27 11:01:34;;;;;;;3.93;3.40;;;;;;;4.56;58.24;96927.28;5028391;28;20225;-70
2023/03/27 11:04:23;;;;;;;5.63;5.07;;;;;;;4.47;55.80;96917.97;5033370;28;20206;-69
2023/03/27 11:06:54;;;;;;;5.13;3.23;;;;;;;4.93;56.76;96906.22;5008357;28;20179;-70
2023/03/27 11:09:24;;;;;;;4.00;3.70;;;;;;;5.40;57.08;96905.56;5018023;28;20180;-71
2023/03/27 11:12:00;;;;;;;5.80;3.57;;;;;;;5.33;57.99;96916.91;5014258;28;20179;-70
2023/03/27 11:14:55;;;;;;;6.23;4.33;;;;;;;5.42;58.95;96913.94;5014623;28;20218;-69
2023/03/27 11:17:46;;;;;;;6.87;3.83;;;;;;;5.37;59.51;96918.13;5016138;28;20194;-69
2023/03/27 11:20:20;;;;;;;4.40;3.93;;;;;;;6.02;59.32;96919.50;5009651;28;20668;-70
2023/03/27 11:22:54;;;;;;;4.30;3.90;;;;;;;5.81;57.58;96922.97;5018670;28;20587;-69
2023/03/27 11:25:42;;;;;;;5.20;3.30;;;;;;;6.17;53.92;96923.56;5022102;28;20286;-69
2023/03/27 11:28:40;;;;;;;4.97;3.80;;;;;;;6.53;53.82;96925.03;5000033;28;20189;-69
2023/03/27 11:31:22;;;;;;;3.80;3.40;;;;;;;5.75;54.58;96944.53;5010431;28;20203;-69
2023/03/27 11:33:53;;;;;;;6.10;4.50;;;;;;;5.23;53.11;96945.81;5017456;28;20305;-70
2023/03/27 11:36:26;;;;;;;4.33;3.53;;;;;;;4.84;52.92;96961.06;4995970;28;20233;-70
2023/03/27 11:39:19;;;;;;;4.43;3.77;;;;;;;5.08;54.20;96952.06;5018181;28;20192;-70
2023/03/27 11:41:54;;;;;;;4.77;3.97;;;;;;;5.24;53.54;96951.81;5012484;28;20240;-70
2023/03/27 11:44:20;;;;;;;8.97;3.83;;;;;;;5.47;54.24;96961.94;5024350;28;20195;-70